Time;durP1;ratioP1;P1;durP2;ratioP2;P2;SDS_P1;SDS_P2;PMS_P1;PMS_P2;Temp;Humidity;BMP_temperature;BMP_pressure;BME280_temperature;BME280_humidity;BME280_pressure;Samples;Min_cycle;Max_cycle;Signal;HPM_P1;HPM_P2
2023/03/02 08:20:07;;;;;;;105.20;43.88;;;5.20;99.90;;;;;;5066213;28;20461;-64
2023/03/02 08:22:34;;;;;;;110.90;48.63;;;5.10;99.90;;;;;;5068232;28;20028;-62
2023/03/02 08:25:00;;;;;;;204.43;67.35;;;5.30;99.90;;;;;;5068407;28;20045;-67
2023/03/02 08:27:25;;;;;;;144.55;58.40;;;5.50;99.90;;;;;;5068288;28;20053;-63
2023/03/02 08:29:53;;;;;;;188.43;62.47;;;5.60;99.90;;;;;;5068647;28;20021;-67
2023/03/02 08:32:18;;;;;;;123.40;53.70;;;5.80;99.90;;;;;;5067812;28;20437;-67
2023/03/02 08:34:44;;;;;;;119.90;52.20;;;5.80;99.90;;;;;;5067804;28;20020;-63
2023/03/02 08:37:10;;;;;;;103.90;48.38;;;6.10;99.90;;;;;;5068551;28;20025;-66
2023/03/02 08:39:35;;;;;;;102.97;48.75;;;6.30;99.90;;;;;;5069832;28;20033;-67
2023/03/02 08:42:01;;;;;;;92.45;45.20;;;6.50;99.90;;;;;;5069857;28;20442;-66
2023/03/02 08:44:27;;;;;;;90.22;43.40;;;6.70;99.90;;;;;;5069708;28;20433;-70
2023/03/02 08:46:53;;;;;;;96.28;42.53;;;6.90;99.90;;;;;;5069840;28;20043;-62
2023/03/02 08:49:19;;;;;;;76.65;37.15;;;7.00;99.90;;;;;;5055082;28;20021;-62
2023/03/02 08:51:47;;;;;;;61.75;33.65;;;7.10;99.90;;;;;;5065390;28;20052;-62
2023/03/02 08:54:13;;;;;;;62.40;33.13;;;7.10;99.90;;;;;;5052735;28;20493;-61
2023/03/02 08:56:43;;;;;;;74.32;34.63;;;7.20;99.90;;;;;;5058527;28;20056;-62
2023/03/02 08:59:11;;;;;;;57.75;30.33;;;7.30;99.90;;;;;;5044862;28;20037;-64
2023/03/02 09:01:38;;;;;;;48.00;25.80;;;7.20;99.90;;;;;;5063333;28;20514;-63
2023/03/02 09:04:06;;;;;;;51.38;26.27;;;7.30;99.90;;;;;;5062554;28;20475;-62
2023/03/02 09:06:34;;;;;;;56.45;27.27;;;7.40;99.90;;;;;;5054846;28;20029;-62
2023/03/02 09:09:04;;;;;;;44.17;23.63;;;7.50;99.90;;;;;;5051741;28;20028;-66
2023/03/02 09:11:29;;;;;;;43.90;23.95;;;7.60;99.90;;;;;;5048859;28;20669;-62
2023/03/02 09:13:55;;;;;;;44.25;23.92;;;7.70;99.90;;;;;;5046448;28;20037;-63
2023/03/02 09:16:25;;;;;;;53.40;26.45;;;8.00;99.90;;;;;;5065297;28;20031;-64
2023/03/02 09:18:52;;;;;;;45.63;24.80;;;8.00;99.90;;;;;;5065447;28;20052;-62
2023/03/02 09:21:18;;;;;;;54.63;26.02;;;8.00;99.90;;;;;;5048435;28;20029;-62
2023/03/02 09:23:44;;;;;;;43.33;25.75;;;8.00;99.90;;;;;;5059244;28;20100;-64
2023/03/02 09:26:10;;;;;;;38.83;21.70;;;8.00;99.90;;;;;;5057032;28;20109;-64
2023/03/02 09:28:37;;;;;;;33.45;20.73;;;8.00;99.90;;;;;;5052753;28;20376;-66
2023/03/02 09:31:05;;;;;;;35.28;21.20;;;8.10;99.90;;;;;;5057224;28;20021;-64
2023/03/02 09:33:31;;;;;;;42.78;22.38;;;8.10;99.90;;;;;;5048726;28;20029;-63
2023/03/02 09:35:57;;;;;;;48.40;25.15;;;8.10;99.90;;;;;;5048070;28;20379;-63
2023/03/02 09:38:23;;;;;;;70.97;36.20;;;8.20;99.90;;;;;;5040034;28;20037;-61
2023/03/02 09:40:50;;;;;;;70.72;36.25;;;8.20;99.90;;;;;;5043268;28;20032;-66
2023/03/02 09:43:19;;;;;;;73.05;35.97;;;8.30;99.90;;;;;;5041507;28;20025;-64
2023/03/02 09:46:06;;;;;;;62.97;34.65;;;8.80;99.90;;;;;;5039242;28;20040;-66
2023/03/02 09:48:52;;;;;;;85.15;41.75;;;9.10;99.90;;;;;;5041757;28;20070;-65
2023/03/02 09:51:39;;;;;;;68.85;39.35;;;9.50;99.90;;;;;;5038348;28;20082;-63
2023/03/02 09:54:16;;;;;;;77.97;40.85;;;9.80;99.90;;;;;;5040162;28;20631;-61
2023/03/02 09:57:02;;;;;;;73.88;40.70;;;9.80;99.90;;;;;;5032093;28;20380;-64
2023/03/02 09:59:37;;;;;;;79.00;38.80;;;10.00;99.90;;;;;;5032502;28;20083;-62
2023/03/02 10:02:28;;;;;;;68.40;37.70;;;10.30;99.90;;;;;;5031486;28;20348;-62
2023/03/02 10:04:57;;;;;;;74.70;39.50;;;10.10;99.90;;;;;;5032856;28;20025;-61
2023/03/02 10:07:37;;;;;;;73.43;38.95;;;9.90;99.90;;;;;;5031081;28;20018;-62
2023/03/02 10:10:21;;;;;;;70.40;40.78;;;9.80;99.90;;;;;;5031321;28;20321;-65
2023/03/02 10:12:53;;;;;;;93.53;45.67;;;9.80;99.90;;;;;;5029384;28;20029;-61
2023/03/02 10:15:29;;;;;;;113.40;50.75;;;9.80;99.90;;;;;;5030306;28;20148;-61
2023/03/02 10:18:13;;;;;;;87.15;45.65;;;9.80;99.90;;;;;;5032278;28;20029;-63
2023/03/02 10:20:50;;;;;;;79.85;39.97;;;9.60;99.90;;;;;;5042849;28;20104;-62
2023/03/02 10:23:35;;;;;;;82.75;37.97;;;9.70;99.90;;;;;;5051222;28;20056;-63
2023/03/02 10:26:24;;;;;;;88.45;38.90;;;9.60;99.90;;;;;;5049309;28;20440;-61
2023/03/02 10:29:29;;;;;;;87.63;37.70;;;9.10;99.90;;;;;;5053218;28;20459;-65
2023/03/02 10:32:22;;;;;;;72.20;34.67;;;8.90;99.90;;;;;;5052683;28;20075;-64
2023/03/02 10:34:50;;;;;;;72.23;33.30;;;8.90;99.90;;;;;;5054044;28;20094;-63
2023/03/02 10:37:21;;;;;;;63.45;32.58;;;8.80;99.90;;;;;;5052820;28;20446;-61
2023/03/02 10:39:48;;;;;;;55.13;31.73;;;8.70;99.90;;;;;;5041011;28;20446;-62
2023/03/02 10:42:24;;;;;;;72.95;37.72;;;8.80;99.90;;;;;;5033687;28;20370;-63
2023/03/02 10:44:54;;;;;;;64.15;36.78;;;9.00;99.90;;;;;;5050548;28;20021;-62
2023/03/02 10:47:26;;;;;;;59.05;33.35;;;9.00;99.90;;;;;;5050413;28;20096;-62
2023/03/02 10:49:53;;;;;;;79.70;36.40;;;9.00;99.90;;;;;;5048925;28;20750;-62
2023/03/02 10:52:27;;;;;;;69.78;33.63;;;9.10;99.90;;;;;;5049549;28;20128;-62
2023/03/02 10:55:12;;;;;;;76.43;37.83;;;9.00;99.90;;;;;;5048340;28;20053;-62
2023/03/02 10:57:39;;;;;;;60.72;31.65;;;9.00;99.90;;;;;;5040583;28;20055;-62
2023/03/02 11:00:17;;;;;;;53.70;29.88;;;9.20;99.90;;;;;;5033718;28;20037;-62
2023/03/02 11:02:51;;;;;;;53.40;28.70;;;9.30;99.90;;;;;;5047861;28;20079;-62
2023/03/02 11:05:16;;;;;;;51.42;28.13;;;9.40;99.90;;;;;;5046838;28;20029;-62
2023/03/02 11:07:56;;;;;;;51.85;27.35;;;9.30;99.90;;;;;;5048459;28;20115;-62
2023/03/02 11:10:25;;;;;;;47.08;29.00;;;9.40;99.90;;;;;;5049027;28;20028;-62
2023/03/02 11:12:52;;;;;;;61.70;33.55;;;9.40;99.90;;;;;;5048795;28;20492;-62
2023/03/02 11:15:20;;;;;;;71.80;36.42;;;9.30;99.90;;;;;;5050401;28;20095;-62
2023/03/02 11:17:53;;;;;;;85.50;38.97;;;9.00;99.90;;;;;;5052728;28;20082;-62
2023/03/02 11:20:24;;;;;;;64.70;34.85;;;8.90;99.90;;;;;;5053481;28;20486;-62
2023/03/02 11:23:16;;;;;;;65.88;35.58;;;9.00;99.90;;;;;;5051935;28;20024;-62
2023/03/02 11:25:52;;;;;;;74.22;35.28;;;9.00;99.90;;;;;;5052561;28;20097;-62
2023/03/02 11:28:41;;;;;;;58.08;33.47;;;9.00;99.90;;;;;;5049865;28;20096;-63
2023/03/02 11:31:21;;;;;;;62.05;35.25;;;8.80;99.90;;;;;;5040920;28;20120;-65
2023/03/02 11:34:20;;;;;;;54.30;31.38;;;8.90;99.90;;;;;;5036455;28;20074;-65
2023/03/02 11:36:58;;;;;;;53.15;31.42;;;9.10;99.90;;;;;;5038644;28;20037;-65
2023/03/02 11:39:46;;;;;;;68.40;36.83;;;9.20;99.90;;;;;;5046079;28;20494;-70
2023/03/02 11:42:28;;;;;;;49.30;30.25;;;9.30;99.90;;;;;;5039659;28;20464;-65
2023/03/02 11:44:54;;;;;;;55.47;30.88;;;9.40;99.90;;;;;;5050543;28;20024;-62
2023/03/02 11:47:21;;;;;;;45.33;30.55;;;9.70;99.90;;;;;;5047757;28;20048;-64
2023/03/02 11:49:55;;;;;;;51.50;32.58;;;9.70;99.90;;;;;;5045154;28;20049;-63
2023/03/02 11:52:25;;;;;;;46.33;30.77;;;9.80;99.90;;;;;;5038095;28;20483;-61
2023/03/02 11:55:19;;;;;;;39.17;28.85;;;10.00;99.90;;;;;;5031753;28;20025;-65
2023/03/02 11:57:52;;;;;;;43.40;26.77;;;10.10;99.90;;;;;;5043541;28;20079;-63
2023/03/02 12:00:35;;;;;;;38.45;26.77;;;10.30;99.90;;;;;;5050322;28;20032;-63
2023/03/02 12:03:17;;;;;;;37.15;25.33;;;10.40;99.90;;;;;;5040663;28;20056;-64
2023/03/02 12:05:57;;;;;;;33.30;22.30;;;10.40;99.90;;;;;;5037692;28;20034;-65
2023/03/02 12:08:24;;;;;;;34.85;23.02;;;10.40;99.90;;;;;;5033971;28;20022;-61
2023/03/02 12:11:03;;;;;;;40.63;25.92;;;10.50;99.90;;;;;;5036410;28;20426;-61
2023/03/02 12:13:31;;;;;;;39.53;24.50;;;10.50;99.90;;;;;;5039887;28;20025;-63
2023/03/02 12:15:57;;;;;;;35.70;23.98;;;10.50;99.90;;;;;;5031742;28;20029;-68
2023/03/02 12:18:23;;;;;;;39.05;25.33;;;10.50;99.90;;;;;;5048247;28;20057;-61
2023/03/02 12:21:09;;;;;;;46.63;28.02;;;10.50;99.90;;;;;;5042666;28;20025;-61
2023/03/02 12:23:53;;;;;;;43.65;28.00;;;10.30;99.90;;;;;;5040831;28;20037;-62
2023/03/02 12:26:28;;;;;;;43.58;26.80;;;10.20;99.90;;;;;;5038885;28;20025;-61
2023/03/02 12:29:01;;;;;;;43.97;26.90;;;10.20;99.90;;;;;;5037522;28;20124;-62
2023/03/02 12:31:41;;;;;;;40.22;25.65;;;10.10;99.90;;;;;;5047072;28;20025;-63
2023/03/02 12:34:43;;;;;;;48.70;29.25;;;10.00;99.90;;;;;;5042118;28;20727;-66
2023/03/02 12:37:36;;;;;;;45.47;26.90;;;10.00;99.90;;;;;;5032755;28;20124;-64
2023/03/02 12:40:37;;;;;;;53.15;32.10;;;9.90;99.90;;;;;;5041028;28;20041;-63
2023/03/02 12:43:26;;;;;;;43.83;30.15;;;9.90;99.90;;;;;;5046083;28;20082;-65
2023/03/02 12:46:29;;;;;;;72.72;40.35;;;9.90;99.90;;;;;;5044873;28;20021;-64
2023/03/02 12:49:26;;;;;;;61.35;34.83;;;9.70;99.90;;;;;;5036883;28;20033;-63
2023/03/02 12:52:20;;;;;;;51.33;30.98;;;9.60;99.90;;;;;;5032683;28;20025;-62
2023/03/02 12:55:04;;;;;;;50.20;30.13;;;9.70;99.90;;;;;;5029658;28;20037;-60
2023/03/02 12:57:30;;;;;;;44.28;28.05;;;9.80;99.90;;;;;;5035449;28;20017;-63
2023/03/02 12:59:59;;;;;;;49.25;30.00;;;9.80;99.90;;;;;;5038785;28;20041;-62
2023/03/02 13:02:28;;;;;;;52.30;29.33;;;10.00;99.90;;;;;;5050471;28;20044;-65
2023/03/02 13:04:55;;;;;;;85.07;39.95;;;10.00;99.90;;;;;;5032742;28;20143;-60
2023/03/02 13:07:27;;;;;;;65.18;35.55;;;10.00;99.90;;;;;;5038448;28;20029;-61
2023/03/02 13:09:56;;;;;;;65.75;35.28;;;10.00;99.90;;;;;;5051924;28;20479;-61
2023/03/02 13:12:21;;;;;;;70.25;37.90;;;10.00;99.90;;;;;;5040246;28;20124;-62
2023/03/02 13:14:54;;;;;;;91.90;43.10;;;10.00;99.90;;;;;;5033681;28;22354;-65
2023/03/02 13:17:26;;;;;;;114.00;56.38;;;9.90;99.90;;;;;;5033202;28;20053;-62
2023/03/02 13:19:52;;;;;;;135.98;70.00;;;9.70;99.90;;;;;;5054478;28;20055;-62
2023/03/02 13:22:21;;;;;;;90.60;49.97;;;9.60;99.90;;;;;;5052457;28;20087;-63
2023/03/02 13:24:56;;;;;;;81.88;47.45;;;9.50;99.90;;;;;;5052158;28;20086;-63
2023/03/02 13:27:23;;;;;;;97.22;47.85;;;9.60;99.90;;;;;;5053438;28;20025;-63
2023/03/02 13:29:51;;;;;;;89.38;45.20;;;9.60;99.90;;;;;;5053192;28;20354;-63
2023/03/02 13:32:40;;;;;;;78.78;42.47;;;9.60;99.90;;;;;;5052624;28;20549;-62
2023/03/02 13:35:24;;;;;;;110.25;52.95;;;9.60;99.90;;;;;;5053258;28;20021;-62
2023/03/02 13:38:05;;;;;;;103.00;49.47;;;9.50;99.90;;;;;;5054241;28;20021;-62
2023/03/02 13:40:39;;;;;;;93.10;52.67;;;9.30;99.90;;;;;;5053715;28;20021;-62
2023/03/02 13:43:39;;;;;;;94.55;50.05;;;9.30;99.90;;;;;;5052598;28;20039;-62
2023/03/02 13:46:24;;;;;;;97.80;48.67;;;9.30;99.90;;;;;;5053756;28;20036;-62
2023/03/02 13:48:53;;;;;;;120.75;59.60;;;9.30;99.90;;;;;;5053738;28;20087;-63
2023/03/02 13:51:22;;;;;;;118.85;56.25;;;9.30;99.90;;;;;;5053942;28;20113;-62
2023/03/02 13:54:00;;;;;;;89.75;49.95;;;9.30;99.90;;;;;;5054409;28;20536;-63
2023/03/02 13:56:39;;;;;;;107.90;51.65;;;9.30;99.90;;;;;;5054858;28;20049;-62
2023/03/02 13:59:15;;;;;;;95.03;52.63;;;9.20;99.90;;;;;;5055251;28;20064;-62
2023/03/02 14:01:42;;;;;;;94.47;52.28;;;9.20;99.90;;;;;;5054946;28;20021;-62
2023/03/02 14:04:15;;;;;;;106.07;54.83;;;9.20;99.90;;;;;;5055442;28;20022;-62
2023/03/02 14:06:40;;;;;;;93.90;52.33;;;9.30;99.90;;;;;;5055327;28;20487;-62
2023/03/02 14:09:06;;;;;;;92.30;51.97;;;9.30;99.90;;;;;;5055274;28;20033;-62
2023/03/02 14:11:40;;;;;;;163.30;90.88;;;9.40;99.90;;;;;;5055153;28;20086;-62
2023/03/02 14:14:10;;;;;;;137.20;82.80;;;9.40;99.90;;;;;;5055184;28;20391;-63
2023/03/02 14:16:36;;;;;;;129.88;76.07;;;9.20;99.90;;;;;;5055188;28;20017;-63
2023/03/02 14:19:02;;;;;;;142.82;84.63;;;9.10;99.90;;;;;;5054910;28;20495;-63
2023/03/02 14:21:28;;;;;;;112.78;70.22;;;9.10;99.90;;;;;;5055038;28;20111;-63
2023/03/02 14:23:54;;;;;;;104.95;67.40;;;9.10;99.90;;;;;;5054987;28;20113;-63
2023/03/02 14:26:39;;;;;;;109.82;70.70;;;9.20;99.90;;;;;;5054916;28;20112;-62
2023/03/02 14:29:11;;;;;;;113.15;68.85;;;9.30;99.90;;;;;;5055512;28;20079;-62
2023/03/02 14:31:37;;;;;;;104.00;66.18;;;9.40;99.90;;;;;;5054862;28;20087;-63
2023/03/02 14:34:02;;;;;;;96.45;63.42;;;9.30;99.90;;;;;;5054787;28;20022;-62
2023/03/02 14:36:32;;;;;;;100.53;66.20;;;9.30;99.90;;;;;;5054641;28;20078;-62
2023/03/02 14:39:03;;;;;;;91.97;62.97;;;9.20;99.90;;;;;;5054954;28;20041;-63
2023/03/02 14:41:29;;;;;;;91.53;64.32;;;9.20;99.90;;;;;;5054416;28;20471;-62
2023/03/02 14:43:55;;;;;;;87.43;61.33;;;9.30;99.90;;;;;;5054752;28;20031;-62
2023/03/02 14:46:20;;;;;;;182.00;115.40;;;9.40;99.90;;;;;;5054742;28;20375;-63
2023/03/02 14:48:46;;;;;;;115.45;78.57;;;9.40;99.90;;;;;;5054841;28;20030;-62
2023/03/02 14:51:25;;;;;;;119.70;77.75;;;9.30;99.90;;;;;;5054572;28;20115;-63
2023/03/02 14:53:52;;;;;;;112.03;72.00;;;9.10;99.90;;;;;;5054346;28;20024;-62
2023/03/02 14:56:21;;;;;;;104.22;68.53;;;9.10;99.90;;;;;;5054346;28;20509;-63
2023/03/02 14:58:49;;;;;;;102.78;66.35;;;9.10;99.90;;;;;;5054590;28;20386;-63
2023/03/02 15:01:16;;;;;;;112.45;64.60;;;9.20;99.90;;;;;;5054360;28;20021;-63
2023/03/02 15:03:41;;;;;;;85.63;54.00;;;9.10;99.90;;;;;;5054198;28;20020;-63
2023/03/02 15:06:30;;;;;;;105.22;62.53;;;9.10;99.90;;;;;;5054391;28;20582;-63
2023/03/02 15:08:58;;;;;;;129.85;79.13;;;9.10;99.90;;;;;;5053956;28;20024;-63
2023/03/02 15:11:25;;;;;;;124.50;75.25;;;9.00;99.90;;;;;;5054121;28;20379;-62
2023/03/02 15:13:51;;;;;;;118.82;74.20;;;8.90;99.90;;;;;;5054157;28;20070;-62
2023/03/02 15:16:17;;;;;;;113.95;69.70;;;8.90;99.90;;;;;;5041114;28;20049;-62
2023/03/02 15:18:43;;;;;;;137.23;84.63;;;8.90;99.90;;;;;;5033842;28;20091;-62
2023/03/02 15:21:18;;;;;;;120.85;72.28;;;8.90;99.90;;;;;;5034009;28;20021;-62
2023/03/02 15:23:44;;;;;;;111.47;67.82;;;8.70;99.90;;;;;;5033694;28;20476;-62
2023/03/02 15:26:11;;;;;;;111.32;72.60;;;8.70;99.90;;;;;;5033994;28;20025;-62
2023/03/02 15:28:37;;;;;;;142.18;91.07;;;8.70;99.90;;;;;;5033466;28;20029;-63
2023/03/02 15:31:14;;;;;;;107.60;72.35;;;8.70;99.90;;;;;;5033724;28;20087;-62
2023/03/02 15:33:42;;;;;;;94.32;62.20;;;8.70;99.90;;;;;;5035157;28;20120;-63
2023/03/02 15:36:08;;;;;;;84.60;57.30;;;8.80;99.90;;;;;;5033933;28;20463;-62
2023/03/02 15:38:35;;;;;;;97.20;63.20;;;8.90;99.90;;;;;;5033441;28;20508;-62
2023/03/02 15:41:06;;;;;;;169.20;114.22;;;9.00;99.90;;;;;;5033516;28;20021;-62
2023/03/02 15:43:32;;;;;;;136.88;96.88;;;8.80;99.90;;;;;;5032488;28;20515;-62
2023/03/02 15:45:58;;;;;;;120.93;84.30;;;8.50;99.90;;;;;;5033036;28;20071;-62
2023/03/02 15:48:23;;;;;;;125.38;81.60;;;8.50;99.90;;;;;;5033417;28;20025;-64
2023/03/02 15:51:00;;;;;;;107.55;67.50;;;8.30;99.90;;;;;;5033574;28;20092;-62
2023/03/02 15:53:27;;;;;;;97.72;61.90;;;8.00;99.90;;;;;;5031662;28;20383;-62
2023/03/02 15:55:54;;;;;;;103.20;63.25;;;7.80;99.90;;;;;;5031566;28;20060;-61
2023/03/02 15:58:20;;;;;;;105.38;63.45;;;7.60;99.90;;;;;;5031373;28;20052;-62
2023/03/02 16:00:52;;;;;;;111.68;70.93;;;7.60;99.90;;;;;;5032394;28;20025;-62
2023/03/02 16:03:18;;;;;;;110.00;68.47;;;7.70;99.90;;;;;;5032916;28;20124;-62
2023/03/02 16:05:44;;;;;;;121.10;80.40;;;7.70;99.90;;;;;;5032761;28;20472;-62
2023/03/02 16:08:10;;;;;;;108.47;72.78;;;7.80;99.90;;;;;;5032931;28;20032;-62
2023/03/02 16:10:35;;;;;;;101.57;68.78;;;7.80;99.90;;;;;;5033351;28;20018;-62
2023/03/02 16:13:05;;;;;;;108.60;69.68;;;7.90;99.90;;;;;;5033225;28;20383;-62
2023/03/02 16:15:39;;;;;;;99.28;61.40;;;7.80;99.90;;;;;;5031998;28;20392;-62
2023/03/02 16:18:09;;;;;;;89.35;60.63;;;7.60;99.90;;;;;;5033052;28;20050;-62
2023/03/02 16:20:36;;;;;;;87.05;56.25;;;7.40;99.90;;;;;;5033111;28;20053;-62
2023/03/02 16:23:04;;;;;;;99.15;63.63;;;7.30;99.90;;;;;;5032991;28;20021;-62
2023/03/02 16:25:38;;;;;;;100.03;62.72;;;7.30;99.90;;;;;;5033185;28;20423;-62
2023/03/02 16:28:04;;;;;;;84.93;57.00;;;7.20;99.90;;;;;;5033249;28;20353;-62
